Bville, Texas
Current Conditions -  °F | °C
As of 3:53 PM on Friday 31 Oct 2014 (Local Time) from KBRO Reporting Station
Scattered Clouds Scattered Clouds  
Wind Chill: 80°   Ceiling: Unl
Heat Index: 82°   Visibility: 10mi
Dew Point: 67°   Wind: 15mph
Humidity: 64%   Direction: 360°N
Pressure: 30.12"   Gusts: 23mph
Location:  26.0002°N, 97.5729°W
Report Text: KBRO 312053Z 36013G20KT 10SM FEW027 FEW041 SCT065 27/19 A3012 RMK AO2 SLP197 60000 T02670194 55017
Loading
Personal Weather Stations






























Interactive Weather Map
Tropical Storm Tracking
New forecast layout! Learn more

10-Day Weather Forecast

Advertisements
Track Severe Weather on mobile